sensor_id;sensor_type;location;lat;lon;timestamp;pressure;altitude;pressure_sealevel;temperature;humidity
70458;BME280;57919;56.194;95.716;2022-07-26T00:01:02;98594.56;;;13.73;76.64
70458;BME280;57919;56.194;95.716;2022-07-26T00:11:04;98591.03;;;14.44;75.47
70458;BME280;57919;56.194;95.716;2022-07-26T00:21:06;98579.88;;;15.32;73.25
70458;BME280;57919;56.194;95.716;2022-07-26T00:31:08;98582.88;;;16.94;71.12
70458;BME280;57919;56.194;95.716;2022-07-26T00:41:12;98565.88;;;18.61;67.11
70458;BME280;57919;56.194;95.716;2022-07-26T00:51:14;98562.09;;;19.17;65.63
70458;BME280;57919;56.194;95.716;2022-07-26T01:01:16;98574.50;;;19.87;64.64
70458;BME280;57919;56.194;95.716;2022-07-26T01:11:18;98569.94;;;21.99;60.79
70458;BME280;57919;56.194;95.716;2022-07-26T01:21:20;98562.19;;;23.31;56.70
70458;BME280;57919;56.194;95.716;2022-07-26T01:31:23;98567.91;;;24.31;54.44
70458;BME280;57919;56.194;95.716;2022-07-26T01:41:25;98569.38;;;25.20;51.60
70458;BME280;57919;56.194;95.716;2022-07-26T01:51:27;98562.88;;;25.26;50.77
70458;BME280;57919;56.194;95.716;2022-07-26T02:01:29;98553.16;;;23.53;53.06
70458;BME280;57919;56.194;95.716;2022-07-26T02:11:31;98557.53;;;22.76;54.59
70458;BME280;57919;56.194;95.716;2022-07-26T02:21:33;98559.56;;;22.87;54.44
70458;BME280;57919;56.194;95.716;2022-07-26T02:31:35;98559.72;;;24.36;49.80
70458;BME280;57919;56.194;95.716;2022-07-26T02:41:37;98563.38;;;22.86;51.93
70458;BME280;57919;56.194;95.716;2022-07-26T02:51:39;98554.19;;;22.31;52.87
70458;BME280;57919;56.194;95.716;2022-07-26T03:01:41;98549.41;;;25.18;47.49
70458;BME280;57919;56.194;95.716;2022-07-26T03:11:43;98534.47;;;26.60;43.17
70458;BME280;57919;56.194;95.716;2022-07-26T03:21:45;98534.16;;;25.04;46.08
70458;BME280;57919;56.194;95.716;2022-07-26T03:31:48;98507.84;;;26.25;43.29
70458;BME280;57919;56.194;95.716;2022-07-26T03:42:05;98527.59;;;24.70;44.38
70458;BME280;57919;56.194;95.716;2022-07-26T03:52:07;98523.41;;;24.56;44.82
70458;BME280;57919;56.194;95.716;2022-07-26T04:02:12;98515.44;;;24.71;44.55
70458;BME280;57919;56.194;95.716;2022-07-26T04:12:13;98510.41;;;24.09;45.51
70458;BME280;57919;56.194;95.716;2022-07-26T04:22:15;98503.69;;;24.52;44.69
70458;BME280;57919;56.194;95.716;2022-07-26T04:32:18;98498.47;;;24.79;44.18
70458;BME280;57919;56.194;95.716;2022-07-26T04:42:19;98485.78;;;24.95;44.16
70458;BME280;57919;56.194;95.716;2022-07-26T04:52:21;98498.38;;;23.92;44.87
70458;BME280;57919;56.194;95.716;2022-07-26T05:02:24;98495.06;;;22.09;48.63
70458;BME280;57919;56.194;95.716;2022-07-26T05:12:26;98493.06;;;21.41;49.92
70458;BME280;57919;56.194;95.716;2022-07-26T05:22:29;98496.88;;;21.72;50.16
70458;BME280;57919;56.194;95.716;2022-07-26T05:32:31;98475.97;;;22.50;48.21
70458;BME280;57919;56.194;95.716;2022-07-26T05:42:33;98461.91;;;23.48;45.98
70458;BME280;57919;56.194;95.716;2022-07-26T05:52:35;98459.59;;;24.97;43.26
70458;BME280;57919;56.194;95.716;2022-07-26T06:02:38;98444.59;;;25.55;41.31
70458;BME280;57919;56.194;95.716;2022-07-26T06:12:41;98433.75;;;25.37;41.21
70458;BME280;57919;56.194;95.716;2022-07-26T06:22:43;98455.13;;;24.44;42.91
70458;BME280;57919;56.194;95.716;2022-07-26T06:32:45;98447.91;;;23.62;44.66
70458;BME280;57919;56.194;95.716;2022-07-26T06:42:47;98456.66;;;23.17;45.80
70458;BME280;57919;56.194;95.716;2022-07-26T06:52:49;98446.13;;;24.37;44.92
70458;BME280;57919;56.194;95.716;2022-07-26T07:02:51;98456.50;;;25.39;41.93
70458;BME280;57919;56.194;95.716;2022-07-26T07:12:53;98456.09;;;23.80;44.11
70458;BME280;57919;56.194;95.716;2022-07-26T07:22:55;98451.09;;;24.75;41.88
70458;BME280;57919;56.194;95.716;2022-07-26T07:32:57;98446.75;;;24.79;42.32
70458;BME280;57919;56.194;95.716;2022-07-26T07:42:59;98443.97;;;24.39;43.71
70458;BME280;57919;56.194;95.716;2022-07-26T07:53:01;98441.72;;;24.76;43.17
70458;BME280;57919;56.194;95.716;2022-07-26T08:03:03;98447.19;;;24.48;43.41
70458;BME280;57919;56.194;95.716;2022-07-26T08:13:05;98442.75;;;24.12;43.96
70458;BME280;57919;56.194;95.716;2022-07-26T08:23:07;98442.06;;;23.93;44.40
70458;BME280;57919;56.194;95.716;2022-07-26T08:33:10;98426.44;;;23.99;44.40
70458;BME280;57919;56.194;95.716;2022-07-26T08:43:12;98442.06;;;24.28;44.12
70458;BME280;57919;56.194;95.716;2022-07-26T08:53:15;98440.47;;;24.44;43.72
70458;BME280;57919;56.194;95.716;2022-07-26T09:03:24;98448.75;;;24.44;44.31
70458;BME280;57919;56.194;95.716;2022-07-26T09:13:55;98442.31;;;24.27;45.03
70458;BME280;57919;56.194;95.716;2022-07-26T09:23:58;98435.78;;;24.21;43.76
70458;BME280;57919;56.194;95.716;2022-07-26T09:34:02;98442.03;;;24.05;43.15
70458;BME280;57919;56.194;95.716;2022-07-26T09:44:18;98443.25;;;23.74;41.92
70458;BME280;57919;56.194;95.716;2022-07-26T09:54:30;98461.75;;;23.85;41.43
70458;BME280;57919;56.194;95.716;2022-07-26T10:04:34;98458.72;;;22.92;43.21
70458;BME280;57919;56.194;95.716;2022-07-26T10:14:44;98452.53;;;22.60;43.96
70458;BME280;57919;56.194;95.716;2022-07-26T10:24:46;98461.13;;;22.51;43.39
70458;BME280;57919;56.194;95.716;2022-07-26T10:34:48;98463.03;;;22.33;43.46
70458;BME280;57919;56.194;95.716;2022-07-26T10:44:50;98459.53;;;22.01;43.50
70458;BME280;57919;56.194;95.716;2022-07-26T11:05:04;98460.34;;;21.83;44.18
70458;BME280;57919;56.194;95.716;2022-07-26T11:15:16;98466.84;;;21.64;44.88
70458;BME280;57919;56.194;95.716;2022-07-26T11:25:22;98463.19;;;21.45;45.15
70458;BME280;57919;56.194;95.716;2022-07-26T11:35:25;98476.13;;;21.44;45.49
70458;BME280;57919;56.194;95.716;2022-07-26T11:45:27;98475.94;;;21.39;45.17
70458;BME280;57919;56.194;95.716;2022-07-26T11:55:30;98470.50;;;21.57;45.37
70458;BME280;57919;56.194;95.716;2022-07-26T12:05:32;98472.44;;;21.25;45.73
70458;BME280;57919;56.194;95.716;2022-07-26T12:15:51;98474.91;;;20.95;46.94
70458;BME280;57919;56.194;95.716;2022-07-26T12:25:53;98489.63;;;20.76;47.27
70458;BME280;57919;56.194;95.716;2022-07-26T12:35:55;98496.09;;;20.44;48.06
70458;BME280;57919;56.194;95.716;2022-07-26T12:46:02;98493.19;;;19.99;48.56
70458;BME280;57919;56.194;95.716;2022-07-26T12:56:04;98499.53;;;19.66;49.09
70458;BME280;57919;56.194;95.716;2022-07-26T13:06:06;98511.09;;;19.35;49.54
70458;BME280;57919;56.194;95.716;2022-07-26T13:16:08;98514.22;;;19.13;49.79
70458;BME280;57919;56.194;95.716;2022-07-26T13:26:10;98514.56;;;18.90;50.13
70458;BME280;57919;56.194;95.716;2022-07-26T13:36:12;98514.00;;;18.60;51.03
70458;BME280;57919;56.194;95.716;2022-07-26T13:46:14;98518.13;;;18.43;52.18
70458;BME280;57919;56.194;95.716;2022-07-26T13:56:15;98519.63;;;18.11;53.23
70458;BME280;57919;56.194;95.716;2022-07-26T14:06:18;98520.88;;;17.80;54.37
70458;BME280;57919;56.194;95.716;2022-07-26T14:16:21;98524.13;;;17.48;55.08
70458;BME280;57919;56.194;95.716;2022-07-26T14:26:24;98525.91;;;17.34;56.41
70458;BME280;57919;56.194;95.716;2022-07-26T14:36:26;98537.47;;;17.15;56.86
70458;BME280;57919;56.194;95.716;2022-07-26T15:10:39;98532.22;;;16.47;61.43
70458;BME280;57919;56.194;95.716;2022-07-26T15:20:41;98538.53;;;16.33;60.97
70458;BME280;57919;56.194;95.716;2022-07-26T15:30:43;98534.88;;;16.26;61.32
70458;BME280;57919;56.194;95.716;2022-07-26T15:40:45;98542.75;;;16.06;61.27
70458;BME280;57919;56.194;95.716;2022-07-26T15:50:48;98548.00;;;15.78;62.10
70458;BME280;57919;56.194;95.716;2022-07-26T16:00:50;98550.13;;;15.45;62.68
70458;BME280;57919;56.194;95.716;2022-07-26T16:10:52;98554.44;;;15.17;63.49
70458;BME280;57919;56.194;95.716;2022-07-26T16:20:54;98570.88;;;15.01;64.07
70458;BME280;57919;56.194;95.716;2022-07-26T16:30:56;98580.03;;;14.77;64.37
70458;BME280;57919;56.194;95.716;2022-07-26T16:40:58;98582.81;;;14.61;64.87
70458;BME280;57919;56.194;95.716;2022-07-26T16:51:00;98567.94;;;14.24;65.58
70458;BME280;57919;56.194;95.716;2022-07-26T17:01:02;98586.69;;;14.11;66.18
70458;BME280;57919;56.194;95.716;2022-07-26T17:11:05;98581.97;;;13.80;66.93
70458;BME280;57919;56.194;95.716;2022-07-26T17:21:07;98594.38;;;13.50;67.93
70458;BME280;57919;56.194;95.716;2022-07-26T17:31:09;98590.31;;;13.46;68.30
70458;BME280;57919;56.194;95.716;2022-07-26T17:41:11;98596.91;;;13.28;69.41
70458;BME280;57919;56.194;95.716;2022-07-26T17:51:15;98591.66;;;13.26;69.48
70458;BME280;57919;56.194;95.716;2022-07-26T18:01:17;98597.50;;;13.05;69.76
70458;BME280;57919;56.194;95.716;2022-07-26T18:11:19;98601.56;;;13.01;69.98
70458;BME280;57919;56.194;95.716;2022-07-26T18:21:21;98600.69;;;12.84;70.42
70458;BME280;57919;56.194;95.716;2022-07-26T18:31:23;98602.25;;;12.53;71.39
70458;BME280;57919;56.194;95.716;2022-07-26T18:41:25;98592.88;;;12.39;71.61
70458;BME280;57919;56.194;95.716;2022-07-26T18:51:29;98603.22;;;12.44;71.69
70458;BME280;57919;56.194;95.716;2022-07-26T19:01:30;98600.59;;;12.26;72.17
70458;BME280;57919;56.194;95.716;2022-07-26T19:11:33;98592.53;;;12.08;72.94
70458;BME280;57919;56.194;95.716;2022-07-26T19:21:35;98596.47;;;11.88;73.69
70458;BME280;57919;56.194;95.716;2022-07-26T19:31:37;98601.19;;;11.68;74.78
70458;BME280;57919;56.194;95.716;2022-07-26T19:41:40;98594.53;;;11.62;74.83
70458;BME280;57919;56.194;95.716;2022-07-26T19:51:44;98588.34;;;11.70;74.31
70458;BME280;57919;56.194;95.716;2022-07-26T20:01:46;98586.25;;;11.64;74.24
70458;BME280;57919;56.194;95.716;2022-07-26T20:11:50;98590.38;;;11.50;74.80
70458;BME280;57919;56.194;95.716;2022-07-26T20:21:52;98574.53;;;11.20;75.88
70458;BME280;57919;56.194;95.716;2022-07-26T20:31:54;98573.38;;;11.22;76.28
70458;BME280;57919;56.194;95.716;2022-07-26T20:41:56;98588.00;;;11.47;76.38
70458;BME280;57919;56.194;95.716;2022-07-26T20:51:58;98589.06;;;11.54;76.87
70458;BME280;57919;56.194;95.716;2022-07-26T21:02:00;98592.38;;;11.66;77.04
70458;BME280;57919;56.194;95.716;2022-07-26T21:12:02;98603.81;;;11.95;76.77
70458;BME280;57919;56.194;95.716;2022-07-26T21:22:05;98592.03;;;12.13;76.32
70458;BME280;57919;56.194;95.716;2022-07-26T21:42:27;98615.16;;;12.25;76.48
70458;BME280;57919;56.194;95.716;2022-07-26T21:52:29;98624.00;;;12.27;76.40
70458;BME280;57919;56.194;95.716;2022-07-26T22:02:31;98619.28;;;12.03;77.30
70458;BME280;57919;56.194;95.716;2022-07-26T22:12:33;98631.97;;;12.03;77.29
70458;BME280;57919;56.194;95.716;2022-07-26T22:22:36;98628.72;;;11.99;77.61
70458;BME280;57919;56.194;95.716;2022-07-26T22:32:38;98623.91;;;12.11;77.81
70458;BME280;57919;56.194;95.716;2022-07-26T22:42:40;98646.44;;;12.37;77.78
